Time;durP1;ratioP1;P1;durP2;ratioP2;P2;SDS_P1;SDS_P2;PMS_P1;PMS_P2;Temp;Humidity;BMP_temperature;BMP_pressure;BME280_temperature;BME280_humidity;BME280_pressure;Samples;Min_cycle;Max_cycle;Signal;HPM_P1;HPM_P2
2022/11/02 00:04:42;;;;;;;168.87;142.43;;;22.90;61.40;;;;;;4853995;55;21010;-36
2022/11/02 00:09:43;;;;;;;163.60;137.07;;;23.00;61.10;;;;;;4765796;55;21480;-44
2022/11/02 00:14:44;;;;;;;162.10;138.68;;;22.90;61.90;;;;;;4976640;55;21026;-40
2022/11/02 00:19:45;;;;;;;154.07;133.57;;;22.90;61.70;;;;;;4788357;55;21026;-31
2022/11/02 00:24:46;;;;;;;156.45;133.00;;;22.90;61.20;;;;;;4777287;55;21090;-32
2022/11/02 00:29:46;;;;;;;150.12;129.85;;;22.90;61.10;;;;;;5111196;55;21093;-34
2022/11/02 00:34:47;;;;;;;149.75;128.38;;;22.90;61.20;;;;;;4993274;55;21077;-39
2022/11/02 00:39:48;;;;;;;147.65;126.53;;;22.90;60.80;;;;;;5231197;55;21483;-38
2022/11/02 00:44:49;;;;;;;150.60;129.87;;;22.90;61.10;;;;;;4838703;55;21580;-47
2022/11/02 00:49:49;;;;;;;142.13;122.85;;;22.90;60.90;;;;;;4792178;55;21013;-44
2022/11/02 00:54:50;;;;;;;139.37;118.72;;;22.90;60.80;;;;;;4745313;59;21005;-33
2022/11/02 00:59:51;;;;;;;136.68;116.82;;;22.90;61.10;;;;;;5231442;55;20994;-31
2022/11/02 01:04:52;;;;;;;136.35;117.90;;;22.90;60.90;;;;;;5231040;55;20994;-33
2022/11/02 01:09:53;;;;;;;133.48;113.85;;;22.90;61.00;;;;;;4901641;55;21006;-33
2022/11/02 01:14:53;;;;;;;133.18;117.32;;;22.90;60.90;;;;;;4778308;55;21540;-31
2022/11/02 01:19:54;;;;;;;130.87;111.22;;;22.90;61.00;;;;;;5006831;55;21109;-38
2022/11/02 01:24:55;;;;;;;130.82;113.05;;;22.90;61.00;;;;;;4991515;55;21073;-49
2022/11/02 01:29:56;;;;;;;131.27;111.37;;;22.90;61.00;;;;;;4901393;55;21606;-42
2022/11/02 01:34:57;;;;;;;126.43;110.40;;;22.90;61.10;;;;;;4745338;59;21452;-47
2022/11/02 01:39:57;;;;;;;128.12;111.07;;;22.90;60.70;;;;;;4745782;59;20998;-41
2022/11/02 01:44:58;;;;;;;120.65;103.78;;;22.90;60.70;;;;;;4957147;55;21015;-32
2022/11/02 01:50:17;;;;;;;117.60;100.20;;;23.00;60.80;;;;;;4803178;55;21034;-31
2022/11/02 01:55:23;;;;;;;115.35;98.35;;;22.90;60.60;;;;;;4907361;55;20974;-36
2022/11/02 02:00:24;;;;;;;111.62;98.70;;;22.90;60.70;;;;;;4935448;55;21559;-38
2022/11/02 02:05:26;;;;;;;116.47;98.85;;;22.80;60.50;;;;;;5230854;55;20978;-42
2022/11/02 02:10:27;;;;;;;112.82;99.43;;;22.90;60.90;;;;;;4745863;59;21049;-38
2022/11/02 02:15:45;;;;;;;118.62;99.62;;;22.90;60.50;;;;;;5012858;55;20982;-44
2022/11/02 02:21:10;;;;;;;108.72;95.32;;;22.90;60.50;;;;;;4849736;55;21094;-39
2022/11/02 02:26:36;;;;;;;107.63;94.40;;;22.90;60.50;;;;;;4745151;59;21062;-46
2022/11/02 02:31:48;;;;;;;106.93;91.37;;;22.90;60.30;;;;;;5117138;55;20982;-30
2022/11/02 02:37:17;;;;;;;102.87;89.43;;;22.80;60.20;;;;;;4745633;59;20982;-37
2022/11/02 02:42:34;;;;;;;99.25;85.55;;;22.80;60.10;;;;;;5026104;55;20990;-39
2022/11/02 02:47:41;;;;;;;102.80;87.20;;;22.90;60.40;;;;;;5018197;55;21452;-34
2022/11/02 02:52:45;;;;;;;98.57;86.70;;;22.80;60.20;;;;;;4806140;55;21046;-36
2022/11/02 02:57:47;;;;;;;97.05;84.20;;;22.80;60.20;;;;;;4976871;55;21037;-32
2022/11/02 03:03:01;;;;;;;97.70;82.62;;;22.80;60.00;;;;;;4844158;55;21062;-34
2022/11/02 03:08:08;;;;;;;95.22;80.20;;;22.80;60.20;;;;;;4852777;55;21499;-36
2022/11/02 03:13:27;;;;;;;;;;;22.80;60.00;;;;;;5046784;55;20997;-41
2022/11/02 03:20:00;;;;;;;92.80;79.90;;;22.80;59.70;;;;;;5230501;55;20093;-33
2022/11/02 03:25:20;;;;;;;87.47;76.05;;;22.80;60.00;;;;;;4806085;55;21085;-42
2022/11/02 03:30:23;;;;;;;87.03;74.00;;;22.80;59.90;;;;;;4807250;55;21066;-35
2022/11/02 03:35:43;;;;;;;87.40;74.35;;;22.80;59.70;;;;;;5012444;55;21014;-41
2022/11/02 03:40:48;;;;;;;83.25;71.93;;;22.80;59.70;;;;;;4785271;55;20990;-31
2022/11/02 03:45:55;;;;;;;84.72;71.45;;;22.80;59.90;;;;;;4858853;55;21681;-42
2022/11/02 03:50:59;;;;;;;80.82;67.50;;;22.80;59.70;;;;;;4850645;55;21555;-44
2022/11/02 03:56:07;;;;;;;80.00;68.03;;;22.80;59.70;;;;;;5003020;55;21529;-47
2022/11/02 04:01:09;;;;;;;79.03;67.45;;;22.80;59.80;;;;;;4829116;55;20994;-31
2022/11/02 04:06:11;;;;;;;80.95;65.43;;;22.80;59.70;;;;;;4744781;59;21014;-31
2022/11/02 04:16:33;;;;;;;79.45;65.00;;;22.80;59.60;;;;;;4745188;55;21030;-34
2022/11/02 04:21:33;;;;;;;74.62;63.95;;;22.80;59.70;;;;;;4744566;59;21025;-33
2022/11/02 04:26:34;;;;;;;74.03;64.12;;;22.80;59.60;;;;;;4744749;59;21060;-32
2022/11/02 04:31:35;;;;;;;70.90;61.42;;;22.80;59.60;;;;;;4897393;55;21532;-34
2022/11/02 04:36:36;;;;;;;71.43;60.22;;;22.80;59.60;;;;;;4745645;59;21010;-37
2022/11/02 04:41:43;;;;;;;67.53;57.92;;;22.80;59.50;;;;;;4894482;55;21053;-44
2022/11/02 04:46:43;;;;;;;72.60;59.90;;;22.80;59.30;;;;;;4915626;55;21070;-42
2022/11/02 04:51:44;;;;;;;67.45;57.17;;;22.80;59.40;;;;;;5230055;55;21069;-43
2022/11/02 04:56:45;;;;;;;65.18;54.58;;;22.70;60.00;;;;;;4745251;59;21078;-43
2022/11/02 05:01:46;;;;;;;68.30;56.05;;;22.80;59.40;;;;;;4881741;55;21062;-42
2022/11/02 05:06:46;;;;;;;64.50;54.33;;;22.70;59.20;;;;;;4910174;55;21564;-42
2022/11/02 05:11:47;;;;;;;65.22;55.83;;;22.80;59.40;;;;;;4958026;55;21051;-36
2022/11/02 05:16:48;;;;;;;63.20;55.35;;;22.70;59.40;;;;;;4745508;57;21161;-33
2022/11/02 05:21:49;;;;;;;67.32;55.58;;;22.80;59.50;;;;;;4744836;59;21476;-42
2022/11/02 05:26:50;;;;;;;60.22;51.35;;;22.70;59.40;;;;;;4744606;59;21085;-42
2022/11/02 05:31:51;;;;;;;61.67;52.10;;;22.70;59.50;;;;;;4775279;55;21002;-42
2022/11/02 05:36:51;;;;;;;63.15;53.33;;;22.70;59.50;;;;;;4863725;55;20998;-34
2022/11/02 05:41:52;;;;;;;62.53;53.05;;;22.70;59.40;;;;;;4745553;59;21082;-34
2022/11/02 05:46:53;;;;;;;60.17;50.12;;;22.80;59.50;;;;;;4745114;59;20990;-40
2022/11/02 05:51:54;;;;;;;62.83;52.03;;;22.70;59.50;;;;;;4834313;55;20997;-38
2022/11/02 05:56:56;;;;;;;59.10;49.30;;;22.70;59.40;;;;;;4881881;55;21046;-32
2022/11/02 06:01:57;;;;;;;56.70;49.42;;;22.70;59.40;;;;;;4891465;55;20994;-42
2022/11/02 06:06:57;;;;;;;60.92;49.35;;;22.70;59.60;;;;;;4827909;55;21078;-40
2022/11/02 06:11:58;;;;;;;58.72;49.75;;;22.70;59.40;;;;;;4908908;55;21053;-30
2022/11/02 06:16:59;;;;;;;57.58;48.35;;;22.70;60.10;;;;;;4746546;55;20998;-32
2022/11/02 06:22:00;;;;;;;58.70;48.00;;;22.70;59.70;;;;;;4788472;55;21140;-38
2022/11/02 06:27:00;;;;;;;54.40;46.22;;;22.70;59.60;;;;;;4789014;55;21018;-37
2022/11/02 06:32:01;;;;;;;56.55;46.55;;;22.90;59.70;;;;;;4805694;55;21009;-40
2022/11/02 06:37:02;;;;;;;56.22;46.78;;;22.70;59.50;;;;;;4923185;55;21101;-46
2022/11/02 06:42:03;;;;;;;50.85;43.95;;;22.70;59.50;;;;;;4869223;55;21010;-43
2022/11/02 06:47:04;;;;;;;56.45;47.67;;;22.70;59.60;;;;;;4817847;55;21540;-30
2022/11/02 06:52:05;;;;;;;53.92;46.13;;;22.70;59.50;;;;;;4849416;55;21516;-38
2022/11/02 06:57:06;;;;;;;55.70;46.42;;;22.70;59.60;;;;;;4880150;55;21006;-41
2022/11/02 07:02:08;;;;;;;53.42;44.50;;;22.80;59.80;;;;;;4745472;56;21496;-32
2022/11/02 07:07:08;;;;;;;52.70;45.30;;;22.70;59.50;;;;;;4842820;55;21010;-41
2022/11/02 07:12:09;;;;;;;53.00;43.53;;;22.70;59.60;;;;;;4745320;59;21048;-37
2022/11/02 07:17:10;;;;;;;51.22;43.75;;;22.80;59.60;;;;;;4745276;59;21002;-37
2022/11/02 07:22:11;;;;;;;52.60;44.65;;;22.70;59.60;;;;;;4801751;55;21058;-30
2022/11/02 07:27:11;;;;;;;51.85;43.65;;;22.70;59.60;;;;;;5064547;55;21511;-35
2022/11/02 07:32:12;;;;;;;52.28;43.58;;;22.70;59.70;;;;;;4794847;55;21476;-45
2022/11/02 07:37:13;;;;;;;52.65;44.55;;;22.70;59.60;;;;;;4745189;59;21013;-43
2022/11/02 07:42:14;;;;;;;54.90;43.60;;;22.70;59.60;;;;;;4745376;55;20998;-31
2022/11/02 07:47:15;;;;;;;50.63;42.80;;;22.70;59.60;;;;;;4744242;59;21512;-45
2022/11/02 07:52:15;;;;;;;51.30;43.42;;;22.70;59.70;;;;;;4745314;59;21069;-32
2022/11/02 07:57:16;;;;;;;53.05;43.38;;;22.70;59.60;;;;;;4797775;55;21077;-32
2022/11/02 08:02:17;;;;;;;50.50;42.42;;;22.70;59.70;;;;;;4745199;59;21065;-41
2022/11/02 08:07:18;;;;;;;53.15;43.28;;;22.70;60.30;;;;;;5039031;55;21496;-33
2022/11/02 08:12:18;;;;;;;65.95;45.30;;;22.70;58.60;;;;;;4842397;55;21588;-41
2022/11/02 08:17:20;;;;;;;65.45;46.80;;;22.70;54.10;;;;;;4750440;55;21078;-30
2022/11/02 08:22:21;;;;;;;79.15;50.70;;;22.70;52.70;;;;;;4773455;55;21503;-41
2022/11/02 08:27:22;;;;;;;96.82;62.00;;;22.70;52.70;;;;;;4851967;55;20994;-30
2022/11/02 08:32:23;;;;;;;98.30;63.35;;;22.70;52.20;;;;;;4775214;55;21037;-36
2022/11/02 08:37:24;;;;;;;113.22;72.90;;;22.80;51.70;;;;;;4745262;56;21049;-33
2022/11/02 08:42:25;;;;;;;115.05;73.57;;;22.80;51.60;;;;;;4805964;55;21081;-30
2022/11/02 08:47:26;;;;;;;90.82;62.45;;;22.70;51.70;;;;;;4861666;55;21475;-30
2022/11/02 08:52:27;;;;;;;103.12;67.65;;;22.80;53.20;;;;;;4744972;59;21075;-29
2022/11/02 08:57:28;;;;;;;101.93;69.18;;;22.80;53.00;;;;;;4745178;59;21009;-36
2022/11/02 09:02:28;;;;;;;100.03;68.20;;;22.80;53.20;;;;;;4957529;55;21046;-34
2022/11/02 09:07:29;;;;;;;102.05;67.35;;;22.80;53.00;;;;;;4783754;55;21026;-40
2022/11/02 09:12:31;;;;;;;102.95;69.60;;;22.80;53.20;;;;;;4745243;59;21014;-36
2022/11/02 09:17:32;;;;;;;98.87;68.78;;;22.80;53.10;;;;;;4777838;55;21439;-33
2022/11/02 09:22:32;;;;;;;106.57;70.43;;;22.90;53.30;;;;;;4854041;55;21042;-47
2022/11/02 09:27:33;;;;;;;103.15;70.20;;;22.90;53.20;;;;;;4815518;55;20994;-37
2022/11/02 09:32:34;;;;;;;105.80;69.95;;;22.90;53.50;;;;;;4916455;55;21512;-36
2022/11/02 09:37:36;;;;;;;108.60;71.55;;;22.90;53.60;;;;;;4900611;55;21475;-29
2022/11/02 09:46:14;;;;;;;99.95;69.60;;;22.90;53.70;;;;;;4745391;59;20998;-27
2022/11/02 09:51:41;;;;;;;114.65;76.18;;;22.90;53.60;;;;;;4848328;55;21065;-33
2022/11/02 09:56:43;;;;;;;117.78;78.10;;;23.00;53.30;;;;;;4821978;55;21061;-37
2022/11/02 10:04:49;;;;;;;115.20;78.00;;;22.90;53.30;;;;;;4876730;55;20994;-38
2022/11/02 10:09:56;;;;;;;124.15;81.70;;;23.00;53.20;;;;;;4759588;55;21484;-41
2022/11/02 10:16:28;;;;;;;116.88;81.12;;;23.00;53.50;;;;;;4861556;55;21046;-35
2022/11/02 10:21:35;;;;;;;119.57;79.05;;;23.00;53.40;;;;;;4816343;55;21034;-40
2022/11/02 10:26:42;;;;;;;114.60;79.65;;;23.00;53.80;;;;;;4846947;55;21135;-31
2022/11/02 10:31:43;;;;;;;118.53;81.35;;;23.10;53.90;;;;;;4745605;59;21556;-41
2022/11/02 10:39:52;;;;;;;115.40;82.25;;;23.10;54.00;;;;;;4745068;59;21002;-31
2022/11/02 10:46:06;;;;;;;117.07;78.03;;;23.10;53.90;;;;;;4755519;55;21508;-35
2022/11/02 10:51:11;;;;;;;116.22;78.50;;;23.10;54.00;;;;;;4975800;55;20970;-38
2022/11/02 10:56:39;;;;;;;128.68;86.93;;;23.10;54.10;;;;;;4835472;55;21604;-41
2022/11/02 11:02:05;;;;;;;125.75;81.05;;;23.10;53.00;;;;;;4745211;59;21058;-42
2022/11/02 11:07:28;;;;;;;115.78;80.30;;;23.10;53.40;;;;;;4828390;55;21582;-29
2022/11/02 11:12:39;;;;;;;121.35;80.55;;;23.20;53.50;;;;;;4793265;55;21678;-36
2022/11/02 11:17:41;;;;;;;111.62;78.28;;;23.20;53.10;;;;;;4793942;55;21567;-33
2022/11/02 11:22:41;;;;;;;115.18;77.30;;;23.40;53.80;;;;;;4837695;55;21006;-30
2022/11/02 11:28:00;;;;;;;106.85;77.62;;;23.20;53.90;;;;;;4900583;55;21009;-36
2022/11/02 11:33:04;;;;;;;105.50;74.97;;;23.20;54.00;;;;;;4825563;55;21468;-43
2022/11/02 11:38:31;;;;;;;109.40;77.72;;;23.20;54.10;;;;;;4745002;59;21049;-35
2022/11/02 11:43:37;;;;;;;113.80;77.78;;;23.20;54.10;;;;;;4772992;55;21372;-41
2022/11/02 11:48:50;;;;;;;111.60;77.17;;;23.30;54.30;;;;;;4744382;59;21500;-37
2022/11/02 11:54:26;;;;;;;111.97;79.60;;;23.20;54.20;;;;;;4780325;55;21053;-35
2022/11/02 11:59:47;;;;;;;108.22;76.68;;;23.30;54.50;;;;;;4856243;55;20982;-33
2022/11/02 12:04:48;;;;;;;110.68;77.20;;;23.20;54.50;;;;;;4924189;55;21070;-32
2022/11/02 12:10:15;;;;;;;114.15;82.20;;;23.20;56.00;;;;;;4788449;55;21107;-39
2022/11/02 12:15:51;;;;;;;111.43;79.82;;;23.10;54.40;;;;;;4763690;55;21037;-32
2022/11/02 12:24:08;;;;;;;111.15;78.80;;;23.20;54.40;;;;;;4868115;55;21038;-31
2022/11/02 12:30:03;;;;;;;105.97;76.53;;;23.20;54.50;;;;;;4824990;55;21473;-38
2022/11/02 12:35:40;;;;;;;108.07;75.65;;;23.20;54.20;;;;;;4854516;55;21441;-28
2022/11/02 12:43:04;;;;;;;101.28;73.95;;;23.20;54.40;;;;;;4745667;59;20985;-35
2022/11/02 12:48:05;;;;;;;105.28;72.28;;;23.20;54.30;;;;;;4751926;55;21487;-46
2022/11/02 12:56:43;;;;;;;105.57;73.68;;;23.30;55.10;;;;;;4854361;55;21559;-28
2022/11/02 13:01:46;;;;;;;101.53;70.12;;;23.30;55.40;;;;;;4923238;55;21464;-34
2022/11/02 13:06:50;;;;;;;98.35;71.37;;;23.40;55.60;;;;;;4780298;55;21017;-29
2022/11/02 13:12:04;;;;;;;101.10;72.70;;;23.40;55.60;;;;;;4909114;55;21556;-31
2022/11/02 13:17:17;;;;;;;98.70;73.75;;;23.40;55.80;;;;;;4863795;55;21030;-39
2022/11/02 13:22:23;;;;;;;99.97;72.57;;;23.50;55.60;;;;;;4774523;55;21014;-40
2022/11/02 13:27:41;;;;;;;102.07;72.68;;;23.50;55.90;;;;;;4806852;55;21006;-31
2022/11/02 13:34:05;;;;;;;101.57;72.55;;;23.50;55.70;;;;;;4760304;55;21014;-44
2022/11/02 13:39:15;;;;;;;97.18;71.32;;;23.60;56.10;;;;;;4745391;59;21002;-40
2022/11/02 13:44:35;;;;;;;96.20;69.93;;;23.60;56.10;;;;;;4752399;55;21074;-41
2022/11/02 13:49:47;;;;;;;99.60;71.28;;;23.60;55.90;;;;;;4804515;55;21014;-37
2022/11/02 13:54:52;;;;;;;99.32;74.78;;;23.60;55.90;;;;;;4824675;55;21006;-34
2022/11/02 13:59:53;;;;;;;98.57;72.40;;;23.40;55.90;;;;;;4899538;55;21014;-44
2022/11/02 14:04:54;;;;;;;96.25;70.55;;;23.80;56.10;;;;;;4770280;55;21081;-45
2022/11/02 14:10:01;;;;;;;103.75;72.03;;;23.70;56.20;;;;;;4831408;55;21025;-39
2022/11/02 14:16:58;;;;;;;95.78;68.40;;;23.70;55.80;;;;;;4788252;55;20998;-42
2022/11/02 14:22:11;;;;;;;95.10;69.18;;;23.70;55.70;;;;;;4752181;55;21583;-43
2022/11/02 14:27:33;;;;;;;89.13;63.80;;;23.70;56.10;;;;;;4844148;55;21029;-37
2022/11/02 14:32:44;;;;;;;96.05;67.35;;;23.70;56.00;;;;;;4813796;55;21061;-40
2022/11/02 14:38:34;;;;;;;92.70;65.82;;;23.70;56.00;;;;;;4745251;59;21086;-35
2022/11/02 14:45:27;;;;;;;97.75;65.87;;;23.70;55.70;;;;;;4754523;55;20986;-38
2022/11/02 14:50:29;;;;;;;89.97;63.47;;;23.70;55.60;;;;;;4777528;55;21047;-29
2022/11/02 14:55:35;;;;;;;87.57;63.35;;;23.70;55.90;;;;;;4823587;55;21124;-39
2022/11/02 15:01:15;;;;;;;87.10;63.22;;;23.70;56.00;;;;;;4776735;55;21125;-39
2022/11/02 15:06:22;;;;;;;84.93;61.95;;;23.70;55.90;;;;;;4751002;55;21631;-46
2022/11/02 15:11:50;;;;;;;84.57;57.85;;;23.70;56.20;;;;;;4747330;55;21608;-44
2022/11/02 15:16:53;;;;;;;75.85;56.45;;;23.70;56.40;;;;;;4854094;55;21543;-41
2022/11/02 15:22:41;;;;;;;82.03;60.03;;;23.70;56.70;;;;;;4744014;55;21038;-41
2022/11/02 15:27:43;;;;;;;78.22;56.95;;;23.70;56.50;;;;;;4770511;55;21117;-50
2022/11/02 15:32:55;;;;;;;74.65;57.13;;;23.60;56.80;;;;;;4745218;59;21070;-41
2022/11/02 15:38:00;;;;;;;80.97;57.80;;;23.50;56.60;;;;;;4744873;59;21057;-44
2022/11/02 15:46:01;;;;;;;80.05;59.03;;;23.50;57.00;;;;;;4773465;55;21126;-41
2022/11/02 15:55:41;;;;;;;82.90;56.88;;;23.50;56.80;;;;;;4803985;55;20994;-45
2022/11/02 16:00:42;;;;;;;71.78;55.38;;;23.40;57.00;;;;;;4788043;55;21480;-44
2022/11/02 16:05:47;;;;;;;80.97;59.03;;;23.40;57.20;;;;;;5094793;55;21066;-44
2022/11/02 16:10:47;;;;;;;76.40;57.38;;;23.40;57.20;;;;;;4908580;55;21078;-43
2022/11/02 16:15:49;;;;;;;80.22;58.95;;;23.30;57.10;;;;;;4862206;55;21551;-33
2022/11/02 16:20:50;;;;;;;77.53;58.38;;;23.40;57.30;;;;;;5018004;55;21106;-33
2022/11/02 16:25:54;;;;;;;76.93;57.50;;;23.30;57.30;;;;;;4960039;55;21034;-46
2022/11/02 16:31:16;;;;;;;78.20;58.22;;;23.30;57.30;;;;;;4745314;55;21080;-41
2022/11/02 16:36:26;;;;;;;72.30;57.05;;;23.30;57.20;;;;;;4765991;55;21057;-41
2022/11/02 16:41:29;;;;;;;74.87;56.13;;;23.30;57.40;;;;;;4745099;59;21049;-47
2022/11/02 16:46:51;;;;;;;76.93;56.40;;;23.30;57.40;;;;;;4848656;55;21022;-37
2022/11/02 16:52:18;;;;;;;74.05;56.40;;;23.30;57.50;;;;;;4969478;55;21021;-48
2022/11/02 16:57:22;;;;;;;73.32;56.22;;;23.30;57.40;;;;;;4879996;55;21002;-43
2022/11/02 17:02:42;;;;;;;72.40;55.12;;;23.20;57.40;;;;;;4782923;55;21002;-45
2022/11/02 17:07:49;;;;;;;71.55;55.67;;;23.30;57.30;;;;;;4744241;59;21098;-41
2022/11/02 17:12:50;;;;;;;75.00;57.42;;;23.30;57.50;;;;;;4821198;55;21066;-36
2022/11/02 17:18:23;;;;;;;76.07;58.20;;;23.20;57.50;;;;;;4866928;55;21149;-41
2022/11/02 17:23:33;;;;;;;75.90;56.05;;;23.20;57.50;;;;;;4937065;55;21472;-41
2022/11/02 17:28:45;;;;;;;72.18;55.70;;;23.20;57.60;;;;;;4832399;55;21078;-46
2022/11/02 17:33:46;;;;;;;74.07;56.72;;;23.20;57.60;;;;;;4895745;55;21072;-48
2022/11/02 17:38:47;;;;;;;69.65;55.75;;;23.20;57.60;;;;;;4811789;55;20993;-46
2022/11/02 17:43:48;;;;;;;76.12;58.58;;;23.20;57.70;;;;;;4810799;55;21340;-45
2022/11/02 17:48:49;;;;;;;72.82;57.65;;;23.20;57.70;;;;;;4889898;55;21145;-44
2022/11/02 17:53:50;;;;;;;78.95;59.15;;;23.20;57.70;;;;;;4745094;59;21005;-47
2022/11/02 17:58:50;;;;;;;79.85;59.75;;;23.20;57.70;;;;;;4790400;55;21045;-42
2022/11/02 18:03:51;;;;;;;80.80;58.87;;;23.20;57.70;;;;;;4795841;55;21053;-45
2022/11/02 18:09:17;;;;;;;82.68;62.20;;;23.20;57.70;;;;;;4835642;55;21033;-45
2022/11/02 18:14:18;;;;;;;83.83;62.40;;;23.20;57.70;;;;;;4745304;59;21552;-47
2022/11/02 18:19:19;;;;;;;79.18;60.53;;;23.20;58.30;;;;;;4837551;55;21085;-36
2022/11/02 18:24:20;;;;;;;81.15;60.12;;;23.20;57.70;;;;;;4914747;55;21114;-39
2022/11/02 18:29:20;;;;;;;80.72;60.88;;;23.00;57.60;;;;;;4779043;55;21101;-44
2022/11/02 18:34:21;;;;;;;81.40;61.83;;;23.20;57.70;;;;;;4772632;55;21013;-45
2022/11/02 18:39:22;;;;;;;83.72;62.70;;;23.20;57.80;;;;;;4745137;59;20990;-40
2022/11/02 18:44:23;;;;;;;83.12;63.85;;;23.20;57.80;;;;;;4745302;59;21013;-44
2022/11/02 18:49:24;;;;;;;86.12;65.93;;;23.20;57.80;;;;;;4771546;55;21085;-43
2022/11/02 18:54:25;;;;;;;85.47;64.78;;;23.20;57.80;;;;;;4745563;59;21034;-34
2022/11/02 18:59:26;;;;;;;85.47;64.87;;;23.20;57.80;;;;;;4745341;59;21002;-36
2022/11/02 19:04:27;;;;;;;87.53;67.22;;;23.10;57.80;;;;;;4745148;59;21010;-46
2022/11/02 19:09:30;;;;;;;84.55;63.50;;;23.10;57.80;;;;;;4854407;55;20998;-32
2022/11/02 19:14:42;;;;;;;88.85;66.65;;;23.20;57.90;;;;;;4745188;59;21476;-39
2022/11/02 19:19:45;;;;;;;89.10;67.15;;;23.10;57.80;;;;;;4744727;55;21098;-42
2022/11/02 19:24:46;;;;;;;89.15;66.37;;;23.10;57.80;;;;;;4847119;55;21501;-34
2022/11/02 19:29:46;;;;;;;89.62;67.70;;;23.10;57.80;;;;;;4774159;55;21054;-35
2022/11/02 19:34:48;;;;;;;92.12;67.82;;;23.10;57.70;;;;;;4947171;55;21575;-37
2022/11/02 19:39:48;;;;;;;90.78;68.20;;;23.10;57.70;;;;;;4745278;59;21018;-39
2022/11/02 19:44:49;;;;;;;89.32;65.70;;;23.10;57.70;;;;;;4874303;55;21010;-33
2022/11/02 19:49:50;;;;;;;85.10;67.43;;;23.10;57.80;;;;;;4839367;55;21010;-38
2022/11/02 19:54:51;;;;;;;89.75;69.03;;;23.10;57.70;;;;;;4769922;55;21503;-39
2022/11/02 19:59:52;;;;;;;88.35;66.15;;;23.10;57.80;;;;;;4801479;55;21562;-30
2022/11/02 20:04:52;;;;;;;88.05;67.07;;;23.10;57.80;;;;;;5106131;55;21005;-35
2022/11/02 20:09:53;;;;;;;85.28;65.50;;;23.10;57.80;;;;;;4745593;59;21037;-32
2022/11/02 20:14:54;;;;;;;89.62;67.40;;;23.10;57.90;;;;;;4793481;55;20993;-32
2022/11/02 20:19:55;;;;;;;86.25;64.95;;;23.10;57.90;;;;;;5010464;55;21022;-36
2022/11/02 20:24:55;;;;;;;84.40;64.68;;;23.10;57.80;;;;;;5230571;55;21082;-31
2022/11/02 20:29:56;;;;;;;86.45;65.10;;;23.10;57.80;;;;;;4916603;55;21565;-40
2022/11/02 20:34:57;;;;;;;85.72;67.12;;;23.10;57.80;;;;;;4763214;55;21551;-38
2022/11/02 20:39:58;;;;;;;86.30;65.68;;;23.20;57.90;;;;;;4982449;55;21070;-45
2022/11/02 20:44:59;;;;;;;83.93;64.53;;;23.10;57.80;;;;;;4894250;55;21090;-38
2022/11/02 20:49:59;;;;;;;83.43;63.15;;;23.10;57.80;;;;;;4862696;55;21006;-38
2022/11/02 20:55:00;;;;;;;85.53;64.40;;;23.00;57.80;;;;;;5035698;55;20994;-40
2022/11/02 21:00:01;;;;;;;82.12;64.00;;;23.10;57.80;;;;;;4935700;55;21057;-42
2022/11/02 21:05:03;;;;;;;81.80;63.40;;;23.10;57.80;;;;;;4885494;55;21013;-37
2022/11/02 21:10:05;;;;;;;83.68;62.50;;;23.10;57.80;;;;;;4750426;55;21504;-34
2022/11/02 21:15:07;;;;;;;80.07;62.80;;;23.10;57.70;;;;;;4745672;59;20974;-33
2022/11/02 21:20:09;;;;;;;84.28;66.30;;;23.00;57.70;;;;;;4752635;55;21073;-35
2022/11/02 21:25:10;;;;;;;82.75;64.53;;;23.10;57.70;;;;;;4807767;55;20986;-31
2022/11/02 21:30:12;;;;;;;83.32;63.22;;;23.00;57.70;;;;;;4902753;55;20998;-30
2022/11/02 21:35:12;;;;;;;81.05;62.00;;;23.20;57.90;;;;;;5008837;55;21029;-32
2022/11/02 21:40:14;;;;;;;82.65;63.03;;;23.00;57.70;;;;;;4867003;55;21567;-31
2022/11/02 21:45:14;;;;;;;83.10;63.97;;;23.00;57.70;;;;;;4822052;55;21006;-35
2022/11/02 21:50:15;;;;;;;79.50;61.97;;;23.00;57.70;;;;;;4934038;55;21475;-39
2022/11/02 21:55:16;;;;;;;83.50;63.03;;;23.00;57.60;;;;;;4765528;55;21002;-45
2022/11/02 22:00:17;;;;;;;82.93;63.42;;;23.00;57.60;;;;;;5037016;55;21022;-41
2022/11/02 22:05:53;;;;;;;83.43;62.88;;;23.00;57.60;;;;;;4766362;55;21070;-47
2022/11/02 22:10:57;;;;;;;82.70;62.60;;;23.00;58.20;;;;;;4745483;59;21493;-42
2022/11/02 22:16:09;;;;;;;78.82;60.85;;;23.00;57.70;;;;;;4892190;55;21011;-42
2022/11/02 22:21:11;;;;;;;78.28;60.60;;;23.00;57.40;;;;;;5017220;55;21090;-44
2022/11/02 22:26:16;;;;;;;77.90;59.78;;;23.00;57.60;;;;;;4787945;55;21069;-38
2022/11/02 22:31:24;;;;;;;78.72;61.05;;;23.00;57.60;;;;;;4959032;55;21081;-39
2022/11/02 22:36:29;;;;;;;79.25;60.72;;;23.00;57.40;;;;;;4766910;55;21002;-35
2022/11/02 22:41:41;;;;;;;80.38;60.33;;;23.00;57.70;;;;;;4815419;55;21109;-40
2022/11/02 22:46:44;;;;;;;76.15;59.33;;;23.00;57.40;;;;;;5047742;55;21077;-39
2022/11/02 22:51:47;;;;;;;77.15;59.85;;;23.00;57.60;;;;;;4788347;55;21489;-42
2022/11/02 22:56:48;;;;;;;71.62;56.70;;;23.00;57.60;;;;;;4939799;55;21006;-30
2022/11/02 23:01:50;;;;;;;74.60;58.55;;;23.00;57.60;;;;;;4821451;55;21005;-42
2022/11/02 23:06:50;;;;;;;71.50;56.08;;;23.00;57.60;;;;;;4745088;59;21539;-43
2022/11/02 23:11:51;;;;;;;74.40;58.53;;;23.00;57.60;;;;;;4782624;55;21053;-34
2022/11/02 23:16:52;;;;;;;75.43;57.88;;;23.00;58.10;;;;;;5193033;55;21046;-40
2022/11/02 23:27:24;;;;;;;72.47;56.72;;;23.00;57.60;;;;;;4744523;55;21181;-39
2022/11/02 23:32:25;;;;;;;73.90;57.65;;;23.00;57.60;;;;;;4779463;55;21014;-43
2022/11/02 23:37:26;;;;;;;72.22;55.92;;;23.20;57.60;;;;;;4884066;55;21015;-38
2022/11/02 23:42:26;;;;;;;71.28;55.22;;;23.00;57.50;;;;;;4813351;55;21041;-42
2022/11/02 23:58:07;;;;;;;68.80;55.65;;;23.00;57.40;;;;;;4745061;55;21073;-44
